sensor_id;sensor_type;location;lat;lon;timestamp;P1;durP1;ratioP1;P2;durP2;ratioP2
10761;SDS011;5433;50.862;4.320;2023-07-20T00:01:57;4.60;;;2.60;;
10761;SDS011;5433;50.862;4.320;2023-07-20T00:04:23;5.57;;;2.88;;
10761;SDS011;5433;50.862;4.320;2023-07-20T00:06:49;4.03;;;2.65;;
10761;SDS011;5433;50.862;4.320;2023-07-20T00:09:15;5.20;;;2.63;;
10761;SDS011;5433;50.862;4.320;2023-07-20T00:11:47;5.55;;;2.55;;
10761;SDS011;5433;50.862;4.320;2023-07-20T00:14:13;5.35;;;2.92;;
10761;SDS011;5433;50.862;4.320;2023-07-20T00:16:39;4.32;;;2.97;;
10761;SDS011;5433;50.862;4.320;2023-07-20T00:19:05;5.75;;;2.85;;
10761;SDS011;5433;50.862;4.320;2023-07-20T00:21:33;4.15;;;2.60;;
10761;SDS011;5433;50.862;4.320;2023-07-20T00:23:59;3.83;;;2.90;;
10761;SDS011;5433;50.862;4.320;2023-07-20T00:26:25;6.68;;;2.80;;
10761;SDS011;5433;50.862;4.320;2023-07-20T00:28:51;6.82;;;2.95;;
10761;SDS011;5433;50.862;4.320;2023-07-20T00:31:17;6.95;;;2.80;;
10761;SDS011;5433;50.862;4.320;2023-07-20T00:33:43;6.85;;;2.72;;
10761;SDS011;5433;50.862;4.320;2023-07-20T00:36:09;4.72;;;2.72;;
10761;SDS011;5433;50.862;4.320;2023-07-20T00:38:35;3.80;;;2.63;;
10761;SDS011;5433;50.862;4.320;2023-07-20T00:41:01;7.35;;;2.63;;
10761;SDS011;5433;50.862;4.320;2023-07-20T00:43:27;5.88;;;3.10;;
10761;SDS011;5433;50.862;4.320;2023-07-20T00:45:53;7.20;;;3.13;;
10761;SDS011;5433;50.862;4.320;2023-07-20T00:48:19;6.88;;;3.03;;
10761;SDS011;5433;50.862;4.320;2023-07-20T00:50:45;6.70;;;3.00;;
10761;SDS011;5433;50.862;4.320;2023-07-20T00:53:12;5.20;;;2.78;;
10761;SDS011;5433;50.862;4.320;2023-07-20T00:55:38;4.63;;;3.00;;
10761;SDS011;5433;50.862;4.320;2023-07-20T00:58:05;4.22;;;2.90;;
10761;SDS011;5433;50.862;4.320;2023-07-20T01:00:32;6.72;;;2.90;;
10761;SDS011;5433;50.862;4.320;2023-07-20T01:02:58;6.15;;;3.35;;
10761;SDS011;5433;50.862;4.320;2023-07-20T01:05:25;5.03;;;2.90;;
10761;SDS011;5433;50.862;4.320;2023-07-20T01:08:02;5.32;;;3.15;;
10761;SDS011;5433;50.862;4.320;2023-07-20T01:10:31;5.50;;;2.97;;
10761;SDS011;5433;50.862;4.320;2023-07-20T01:12:58;4.35;;;3.28;;
10761;SDS011;5433;50.862;4.320;2023-07-20T01:15:26;7.75;;;3.17;;
10761;SDS011;5433;50.862;4.320;2023-07-20T01:17:52;7.32;;;3.30;;
10761;SDS011;5433;50.862;4.320;2023-07-20T01:20:18;7.47;;;3.30;;
10761;SDS011;5433;50.862;4.320;2023-07-20T01:28:13;8.95;;;3.15;;
10761;SDS011;5433;50.862;4.320;2023-07-20T01:33:14;6.63;;;3.15;;
10761;SDS011;5433;50.862;4.320;2023-07-20T01:35:41;8.75;;;3.50;;
10761;SDS011;5433;50.862;4.320;2023-07-20T01:38:09;7.00;;;3.80;;
10761;SDS011;5433;50.862;4.320;2023-07-20T01:40:36;7.35;;;3.15;;
10761;SDS011;5433;50.862;4.320;2023-07-20T01:43:02;5.05;;;3.08;;
10761;SDS011;5433;50.862;4.320;2023-07-20T01:45:28;5.20;;;3.17;;
10761;SDS011;5433;50.862;4.320;2023-07-20T01:47:54;6.97;;;3.63;;
10761;SDS011;5433;50.862;4.320;2023-07-20T01:50:20;6.55;;;3.75;;
10761;SDS011;5433;50.862;4.320;2023-07-20T01:52:47;7.13;;;3.92;;
10761;SDS011;5433;50.862;4.320;2023-07-20T01:55:13;7.07;;;3.75;;
10761;SDS011;5433;50.862;4.320;2023-07-20T01:57:39;6.88;;;3.80;;
10761;SDS011;5433;50.862;4.320;2023-07-20T02:00:05;8.45;;;4.72;;
10761;SDS011;5433;50.862;4.320;2023-07-20T02:02:32;9.13;;;4.32;;
10761;SDS011;5433;50.862;4.320;2023-07-20T02:04:58;8.30;;;4.38;;
10761;SDS011;5433;50.862;4.320;2023-07-20T02:07:24;8.88;;;4.65;;
10761;SDS011;5433;50.862;4.320;2023-07-20T02:09:50;9.68;;;4.55;;
10761;SDS011;5433;50.862;4.320;2023-07-20T02:12:16;10.35;;;5.10;;
10761;SDS011;5433;50.862;4.320;2023-07-20T02:14:42;9.60;;;5.40;;
10761;SDS011;5433;50.862;4.320;2023-07-20T02:17:08;7.53;;;4.97;;
10761;SDS011;5433;50.862;4.320;2023-07-20T02:19:35;9.98;;;5.38;;
10761;SDS011;5433;50.862;4.320;2023-07-20T02:22:01;11.45;;;5.72;;
10761;SDS011;5433;50.862;4.320;2023-07-20T02:24:28;13.00;;;6.05;;
10761;SDS011;5433;50.862;4.320;2023-07-20T02:26:54;9.25;;;5.63;;
10761;SDS011;5433;50.862;4.320;2023-07-20T02:29:20;8.35;;;5.50;;
10761;SDS011;5433;50.862;4.320;2023-07-20T02:31:46;7.93;;;5.50;;
10761;SDS011;5433;50.862;4.320;2023-07-20T02:34:12;9.13;;;6.13;;
10761;SDS011;5433;50.862;4.320;2023-07-20T02:36:38;13.40;;;6.22;;
10761;SDS011;5433;50.862;4.320;2023-07-20T02:39:04;11.95;;;6.93;;
10761;SDS011;5433;50.862;4.320;2023-07-20T02:41:32;9.05;;;6.40;;
10761;SDS011;5433;50.862;4.320;2023-07-20T02:43:58;12.25;;;6.55;;
10761;SDS011;5433;50.862;4.320;2023-07-20T02:46:25;11.13;;;6.47;;
10761;SDS011;5433;50.862;4.320;2023-07-20T02:48:51;12.93;;;6.47;;
10761;SDS011;5433;50.862;4.320;2023-07-20T02:51:17;12.70;;;7.13;;
10761;SDS011;5433;50.862;4.320;2023-07-20T02:53:43;10.25;;;6.30;;
10761;SDS011;5433;50.862;4.320;2023-07-20T02:56:09;11.45;;;6.85;;
10761;SDS011;5433;50.862;4.320;2023-07-20T02:58:35;11.73;;;6.57;;
10761;SDS011;5433;50.862;4.320;2023-07-20T03:01:02;12.95;;;6.88;;
10761;SDS011;5433;50.862;4.320;2023-07-20T03:03:28;13.23;;;7.30;;
10761;SDS011;5433;50.862;4.320;2023-07-20T03:05:54;13.27;;;7.18;;
10761;SDS011;5433;50.862;4.320;2023-07-20T03:08:21;14.48;;;7.60;;
10761;SDS011;5433;50.862;4.320;2023-07-20T03:10:47;12.00;;;7.40;;
10761;SDS011;5433;50.862;4.320;2023-07-20T03:13:14;12.45;;;7.20;;
10761;SDS011;5433;50.862;4.320;2023-07-20T03:15:41;15.73;;;7.70;;
10761;SDS011;5433;50.862;4.320;2023-07-20T03:18:07;11.90;;;7.60;;
10761;SDS011;5433;50.862;4.320;2023-07-20T03:20:34;10.48;;;7.40;;
10761;SDS011;5433;50.862;4.320;2023-07-20T03:23:01;12.65;;;6.80;;
10761;SDS011;5433;50.862;4.320;2023-07-20T03:25:27;10.52;;;6.95;;
10761;SDS011;5433;50.862;4.320;2023-07-20T03:27:53;15.18;;;7.43;;
10761;SDS011;5433;50.862;4.320;2023-07-20T03:30:19;13.70;;;7.68;;
10761;SDS011;5433;50.862;4.320;2023-07-20T03:32:45;12.25;;;7.95;;
10761;SDS011;5433;50.862;4.320;2023-07-20T03:35:11;14.23;;;7.90;;
10761;SDS011;5433;50.862;4.320;2023-07-20T03:37:37;14.10;;;7.78;;
10761;SDS011;5433;50.862;4.320;2023-07-20T03:40:03;13.07;;;8.60;;
10761;SDS011;5433;50.862;4.320;2023-07-20T03:42:30;13.93;;;8.07;;
10761;SDS011;5433;50.862;4.320;2023-07-20T03:44:56;14.20;;;7.60;;
10761;SDS011;5433;50.862;4.320;2023-07-20T03:47:22;12.68;;;8.20;;
10761;SDS011;5433;50.862;4.320;2023-07-20T03:49:49;13.00;;;8.57;;
10761;SDS011;5433;50.862;4.320;2023-07-20T03:52:15;14.38;;;8.82;;
10761;SDS011;5433;50.862;4.320;2023-07-20T03:54:41;13.55;;;8.82;;
10761;SDS011;5433;50.862;4.320;2023-07-20T03:57:07;11.98;;;8.90;;
10761;SDS011;5433;50.862;4.320;2023-07-20T03:59:34;14.80;;;9.32;;
10761;SDS011;5433;50.862;4.320;2023-07-20T04:02:00;17.90;;;9.75;;
10761;SDS011;5433;50.862;4.320;2023-07-20T04:04:26;15.75;;;9.30;;
10761;SDS011;5433;50.862;4.320;2023-07-20T04:06:53;15.25;;;9.55;;
10761;SDS011;5433;50.862;4.320;2023-07-20T04:09:19;16.38;;;9.48;;
10761;SDS011;5433;50.862;4.320;2023-07-20T04:11:45;14.75;;;9.15;;
10761;SDS011;5433;50.862;4.320;2023-07-20T04:14:11;13.18;;;9.35;;
10761;SDS011;5433;50.862;4.320;2023-07-20T04:16:37;14.25;;;9.63;;
10761;SDS011;5433;50.862;4.320;2023-07-20T04:19:03;13.57;;;9.75;;
10761;SDS011;5433;50.862;4.320;2023-07-20T04:21:29;13.40;;;9.98;;
10761;SDS011;5433;50.862;4.320;2023-07-20T04:23:55;12.95;;;9.48;;
10761;SDS011;5433;50.862;4.320;2023-07-20T04:26:21;13.52;;;10.00;;
10761;SDS011;5433;50.862;4.320;2023-07-20T04:28:47;12.48;;;9.35;;
10761;SDS011;5433;50.862;4.320;2023-07-20T04:31:15;16.52;;;10.45;;
10761;SDS011;5433;50.862;4.320;2023-07-20T04:33:42;13.02;;;10.05;;
10761;SDS011;5433;50.862;4.320;2023-07-20T04:36:08;13.50;;;9.38;;
10761;SDS011;5433;50.862;4.320;2023-07-20T04:38:34;13.40;;;10.10;;
10761;SDS011;5433;50.862;4.320;2023-07-20T04:41:00;15.35;;;9.88;;
10761;SDS011;5433;50.862;4.320;2023-07-20T04:43:26;15.65;;;9.82;;
10761;SDS011;5433;50.862;4.320;2023-07-20T04:45:53;12.52;;;9.50;;
10761;SDS011;5433;50.862;4.320;2023-07-20T04:48:19;13.98;;;9.73;;
10761;SDS011;5433;50.862;4.320;2023-07-20T04:50:45;13.38;;;9.35;;
10761;SDS011;5433;50.862;4.320;2023-07-20T04:53:11;12.90;;;9.60;;
10761;SDS011;5433;50.862;4.320;2023-07-20T04:55:38;12.40;;;10.02;;
10761;SDS011;5433;50.862;4.320;2023-07-20T04:58:04;12.88;;;10.45;;
10761;SDS011;5433;50.862;4.320;2023-07-20T05:00:31;12.52;;;9.55;;
10761;SDS011;5433;50.862;4.320;2023-07-20T05:02:57;13.23;;;10.18;;
10761;SDS011;5433;50.862;4.320;2023-07-20T05:05:23;12.43;;;9.05;;
10761;SDS011;5433;50.862;4.320;2023-07-20T05:07:49;14.55;;;9.90;;
10761;SDS011;5433;50.862;4.320;2023-07-20T05:10:15;12.43;;;9.25;;
10761;SDS011;5433;50.862;4.320;2023-07-20T05:12:42;12.85;;;10.05;;
10761;SDS011;5433;50.862;4.320;2023-07-20T05:15:08;11.77;;;8.98;;
10761;SDS011;5433;50.862;4.320;2023-07-20T05:17:34;13.73;;;9.52;;
10761;SDS011;5433;50.862;4.320;2023-07-20T05:20:00;13.88;;;9.80;;
10761;SDS011;5433;50.862;4.320;2023-07-20T05:22:26;12.32;;;9.35;;
10761;SDS011;5433;50.862;4.320;2023-07-20T05:24:52;13.80;;;8.98;;
10761;SDS011;5433;50.862;4.320;2023-07-20T05:27:18;12.82;;;9.50;;
10761;SDS011;5433;50.862;4.320;2023-07-20T05:29:45;12.55;;;9.27;;
10761;SDS011;5433;50.862;4.320;2023-07-20T05:32:11;14.32;;;9.55;;
10761;SDS011;5433;50.862;4.320;2023-07-20T05:34:37;14.80;;;9.80;;
10761;SDS011;5433;50.862;4.320;2023-07-20T05:37:03;12.40;;;9.60;;
10761;SDS011;5433;50.862;4.320;2023-07-20T05:39:29;14.75;;;9.70;;
10761;SDS011;5433;50.862;4.320;2023-07-20T05:41:57;14.18;;;9.63;;
10761;SDS011;5433;50.862;4.320;2023-07-20T05:44:23;11.90;;;9.95;;
10761;SDS011;5433;50.862;4.320;2023-07-20T05:46:49;13.25;;;9.93;;
10761;SDS011;5433;50.862;4.320;2023-07-20T05:49:15;14.15;;;10.00;;
10761;SDS011;5433;50.862;4.320;2023-07-20T05:51:41;13.73;;;10.10;;
10761;SDS011;5433;50.862;4.320;2023-07-20T05:54:08;13.25;;;10.13;;
10761;SDS011;5433;50.862;4.320;2023-07-20T05:56:34;13.68;;;10.13;;
10761;SDS011;5433;50.862;4.320;2023-07-20T05:59:00;16.73;;;9.88;;
10761;SDS011;5433;50.862;4.320;2023-07-20T06:01:26;13.32;;;9.70;;
10761;SDS011;5433;50.862;4.320;2023-07-20T06:03:53;12.60;;;9.57;;
10761;SDS011;5433;50.862;4.320;2023-07-20T06:06:19;11.98;;;9.77;;
10761;SDS011;5433;50.862;4.320;2023-07-20T06:08:45;13.93;;;10.30;;
10761;SDS011;5433;50.862;4.320;2023-07-20T06:11:11;13.05;;;10.10;;
10761;SDS011;5433;50.862;4.320;2023-07-20T06:13:37;12.88;;;9.73;;
10761;SDS011;5433;50.862;4.320;2023-07-20T06:16:03;13.00;;;9.75;;
10761;SDS011;5433;50.862;4.320;2023-07-20T06:18:29;12.85;;;10.00;;
10761;SDS011;5433;50.862;4.320;2023-07-20T06:20:56;12.27;;;9.68;;
10761;SDS011;5433;50.862;4.320;2023-07-20T06:23:22;13.68;;;9.77;;
10761;SDS011;5433;50.862;4.320;2023-07-20T06:25:48;12.52;;;9.43;;
10761;SDS011;5433;50.862;4.320;2023-07-20T06:28:14;9.85;;;7.90;;
10761;SDS011;5433;50.862;4.320;2023-07-20T06:30:40;9.07;;;7.57;;
10761;SDS011;5433;50.862;4.320;2023-07-20T06:33:06;14.27;;;8.95;;
10761;SDS011;5433;50.862;4.320;2023-07-20T06:35:33;10.90;;;7.38;;
10761;SDS011;5433;50.862;4.320;2023-07-20T06:37:59;8.25;;;6.28;;
10761;SDS011;5433;50.862;4.320;2023-07-20T06:40:26;7.95;;;6.15;;
10761;SDS011;5433;50.862;4.320;2023-07-20T06:42:52;6.82;;;5.78;;
10761;SDS011;5433;50.862;4.320;2023-07-20T06:45:18;8.55;;;5.13;;
10761;SDS011;5433;50.862;4.320;2023-07-20T06:47:44;5.90;;;5.40;;
10761;SDS011;5433;50.862;4.320;2023-07-20T06:50:10;5.68;;;5.07;;
10761;SDS011;5433;50.862;4.320;2023-07-20T06:52:36;6.70;;;4.93;;
10761;SDS011;5433;50.862;4.320;2023-07-20T06:55:03;7.47;;;5.45;;
10761;SDS011;5433;50.862;4.320;2023-07-20T06:57:29;11.23;;;6.35;;
10761;SDS011;5433;50.862;4.320;2023-07-20T06:59:55;7.38;;;6.25;;
10761;SDS011;5433;50.862;4.320;2023-07-20T07:02:21;7.78;;;6.90;;
10761;SDS011;5433;50.862;4.320;2023-07-20T07:04:47;10.88;;;6.75;;
10761;SDS011;5433;50.862;4.320;2023-07-20T07:07:13;7.18;;;6.47;;
10761;SDS011;5433;50.862;4.320;2023-07-20T07:09:40;9.73;;;6.82;;
10761;SDS011;5433;50.862;4.320;2023-07-20T07:12:06;5.57;;;5.03;;
10761;SDS011;5433;50.862;4.320;2023-07-20T07:14:32;4.65;;;4.15;;
10761;SDS011;5433;50.862;4.320;2023-07-20T07:16:58;2.13;;;1.63;;
10761;SDS011;5433;50.862;4.320;2023-07-20T07:19:24;3.05;;;2.15;;
10761;SDS011;5433;50.862;4.320;2023-07-20T07:21:50;2.22;;;1.90;;
10761;SDS011;5433;50.862;4.320;2023-07-20T07:24:16;2.53;;;2.10;;
10761;SDS011;5433;50.862;4.320;2023-07-20T07:26:42;5.03;;;2.60;;
10761;SDS011;5433;50.862;4.320;2023-07-20T07:29:09;6.15;;;3.00;;
10761;SDS011;5433;50.862;4.320;2023-07-20T07:31:35;3.03;;;2.65;;
10761;SDS011;5433;50.862;4.320;2023-07-20T07:34:01;3.78;;;2.60;;
10761;SDS011;5433;50.862;4.320;2023-07-20T07:36:27;6.93;;;2.58;;
10761;SDS011;5433;50.862;4.320;2023-07-20T07:38:53;3.90;;;2.30;;
10761;SDS011;5433;50.862;4.320;2023-07-20T07:41:19;2.45;;;2.00;;
10761;SDS011;5433;50.862;4.320;2023-07-20T07:43:46;2.28;;;1.92;;
10761;SDS011;5433;50.862;4.320;2023-07-20T07:46:12;3.35;;;2.03;;
10761;SDS011;5433;50.862;4.320;2023-07-20T07:48:39;3.25;;;1.70;;
10761;SDS011;5433;50.862;4.320;2023-07-20T07:51:05;2.80;;;2.20;;
10761;SDS011;5433;50.862;4.320;2023-07-20T07:53:31;2.13;;;1.58;;
10761;SDS011;5433;50.862;4.320;2023-07-20T07:55:57;2.85;;;1.60;;
10761;SDS011;5433;50.862;4.320;2023-07-20T07:58:23;1.67;;;1.55;;
10761;SDS011;5433;50.862;4.320;2023-07-20T08:00:49;1.70;;;1.60;;
10761;SDS011;5433;50.862;4.320;2023-07-20T08:03:15;2.03;;;1.70;;
10761;SDS011;5433;50.862;4.320;2023-07-20T08:05:42;1.38;;;1.25;;
10761;SDS011;5433;50.862;4.320;2023-07-20T08:08:08;1.63;;;1.27;;
10761;SDS011;5433;50.862;4.320;2023-07-20T08:10:34;1.42;;;1.10;;
10761;SDS011;5433;50.862;4.320;2023-07-20T08:13:00;1.08;;;0.90;;
10761;SDS011;5433;50.862;4.320;2023-07-20T08:15:27;1.15;;;0.70;;
10761;SDS011;5433;50.862;4.320;2023-07-20T08:17:53;2.58;;;0.80;;
10761;SDS011;5433;50.862;4.320;2023-07-20T08:20:19;0.50;;;0.50;;
10761;SDS011;5433;50.862;4.320;2023-07-20T08:22:51;0.75;;;0.75;;
10761;SDS011;5433;50.862;4.320;2023-07-20T08:25:17;1.10;;;1.00;;
10761;SDS011;5433;50.862;4.320;2023-07-20T08:27:43;3.05;;;1.10;;
10761;SDS011;5433;50.862;4.320;2023-07-20T08:30:11;1.20;;;0.98;;
10761;SDS011;5433;50.862;4.320;2023-07-20T08:32:37;5.20;;;1.27;;
10761;SDS011;5433;50.862;4.320;2023-07-20T08:35:03;1.48;;;1.38;;
10761;SDS011;5433;50.862;4.320;2023-07-20T08:37:29;3.30;;;1.10;;
10761;SDS011;5433;50.862;4.320;2023-07-20T08:39:55;1.38;;;1.02;;
10761;SDS011;5433;50.862;4.320;2023-07-20T08:42:21;2.20;;;1.20;;
10761;SDS011;5433;50.862;4.320;2023-07-20T08:44:48;2.25;;;1.10;;
10761;SDS011;5433;50.862;4.320;2023-07-20T08:47:15;1.83;;;1.50;;
10761;SDS011;5433;50.862;4.320;2023-07-20T08:49:41;1.98;;;1.33;;
10761;SDS011;5433;50.862;4.320;2023-07-20T08:52:08;2.33;;;1.45;;
10761;SDS011;5433;50.862;4.320;2023-07-20T08:54:34;1.83;;;1.38;;
10761;SDS011;5433;50.862;4.320;2023-07-20T08:57:04;1.60;;;1.50;;
10761;SDS011;5433;50.862;4.320;2023-07-20T08:59:30;2.10;;;1.40;;
10761;SDS011;5433;50.862;4.320;2023-07-20T09:01:57;2.05;;;1.30;;
10761;SDS011;5433;50.862;4.320;2023-07-20T09:04:24;2.40;;;1.30;;
10761;SDS011;5433;50.862;4.320;2023-07-20T09:06:50;1.30;;;1.20;;
10761;SDS011;5433;50.862;4.320;2023-07-20T09:09:17;2.25;;;1.30;;
10761;SDS011;5433;50.862;4.320;2023-07-20T09:11:43;1.45;;;1.10;;
10761;SDS011;5433;50.862;4.320;2023-07-20T09:14:12;2.22;;;1.15;;
10761;SDS011;5433;50.862;4.320;2023-07-20T09:16:51;1.35;;;1.10;;
10761;SDS011;5433;50.862;4.320;2023-07-20T09:19:18;1.50;;;1.13;;
10761;SDS011;5433;50.862;4.320;2023-07-20T09:21:44;1.98;;;1.30;;
10761;SDS011;5433;50.862;4.320;2023-07-20T09:24:11;1.08;;;1.00;;
10761;SDS011;5433;50.862;4.320;2023-07-20T09:26:41;1.70;;;1.10;;
10761;SDS011;5433;50.862;4.320;2023-07-20T09:29:08;0.98;;;0.98;;
10761;SDS011;5433;50.862;4.320;2023-07-20T09:31:35;1.30;;;1.20;;
10761;SDS011;5433;50.862;4.320;2023-07-20T09:34:01;2.00;;;1.27;;
10761;SDS011;5433;50.862;4.320;2023-07-20T09:36:31;0.85;;;0.82;;
10761;SDS011;5433;50.862;4.320;2023-07-20T09:38:59;2.00;;;1.00;;
10761;SDS011;5433;50.862;4.320;2023-07-20T09:41:25;1.90;;;1.10;;
10761;SDS011;5433;50.862;4.320;2023-07-20T09:43:51;1.40;;;1.20;;
10761;SDS011;5433;50.862;4.320;2023-07-20T09:46:18;1.42;;;1.20;;
10761;SDS011;5433;50.862;4.320;2023-07-20T09:48:54;2.63;;;1.20;;
10761;SDS011;5433;50.862;4.320;2023-07-20T09:51:24;1.20;;;1.10;;
10761;SDS011;5433;50.862;4.320;2023-07-20T09:53:53;1.10;;;1.05;;
10761;SDS011;5433;50.862;4.320;2023-07-20T09:56:21;1.00;;;0.90;;
10761;SDS011;5433;50.862;4.320;2023-07-20T09:58:50;1.20;;;1.08;;
10761;SDS011;5433;50.862;4.320;2023-07-20T10:01:18;1.42;;;1.10;;
10761;SDS011;5433;50.862;4.320;2023-07-20T10:03:46;1.83;;;1.10;;
10761;SDS011;5433;50.862;4.320;2023-07-20T10:06:14;1.42;;;1.13;;
10761;SDS011;5433;50.862;4.320;2023-07-20T10:08:41;2.65;;;1.40;;
10761;SDS011;5433;50.862;4.320;2023-07-20T10:11:08;1.40;;;1.30;;
10761;SDS011;5433;50.862;4.320;2023-07-20T10:13:36;1.30;;;1.10;;
10761;SDS011;5433;50.862;4.320;2023-07-20T10:16:03;2.33;;;1.27;;
10761;SDS011;5433;50.862;4.320;2023-07-20T10:20:59;1.05;;;1.00;;
10761;SDS011;5433;50.862;4.320;2023-07-20T10:23:26;1.42;;;1.27;;
10761;SDS011;5433;50.862;4.320;2023-07-20T10:25:55;1.40;;;1.30;;
10761;SDS011;5433;50.862;4.320;2023-07-20T10:28:21;1.30;;;1.20;;
10761;SDS011;5433;50.862;4.320;2023-07-20T10:30:51;1.90;;;1.35;;
10761;SDS011;5433;50.862;4.320;2023-07-20T10:33:17;1.80;;;1.27;;
10761;SDS011;5433;50.862;4.320;2023-07-20T10:35:50;3.58;;;1.33;;
10761;SDS011;5433;50.862;4.320;2023-07-20T10:38:16;1.25;;;1.15;;
10761;SDS011;5433;50.862;4.320;2023-07-20T10:40:42;1.40;;;1.30;;
10761;SDS011;5433;50.862;4.320;2023-07-20T10:43:08;1.50;;;1.10;;
10761;SDS011;5433;50.862;4.320;2023-07-20T10:45:50;2.25;;;1.55;;
10761;SDS011;5433;50.862;4.320;2023-07-20T10:48:18;1.48;;;1.20;;
10761;SDS011;5433;50.862;4.320;2023-07-20T10:50:45;1.40;;;1.20;;
10761;SDS011;5433;50.862;4.320;2023-07-20T10:53:12;2.00;;;1.30;;
10761;SDS011;5433;50.862;4.320;2023-07-20T10:55:39;3.15;;;1.35;;
10761;SDS011;5433;50.862;4.320;2023-07-20T10:58:11;2.28;;;1.50;;
10761;SDS011;5433;50.862;4.320;2023-07-20T11:00:56;1.70;;;1.60;;
10761;SDS011;5433;50.862;4.320;2023-07-20T11:03:29;1.52;;;1.40;;
10761;SDS011;5433;50.862;4.320;2023-07-20T11:05:56;3.30;;;1.70;;
10761;SDS011;5433;50.862;4.320;2023-07-20T11:08:38;2.30;;;2.10;;
10761;SDS011;5433;50.862;4.320;2023-07-20T11:13:55;1.45;;;1.38;;
10761;SDS011;5433;50.862;4.320;2023-07-20T11:16:32;1.52;;;1.33;;
10761;SDS011;5433;50.862;4.320;2023-07-20T11:18:58;2.05;;;1.40;;
10761;SDS011;5433;50.862;4.320;2023-07-20T11:21:24;1.90;;;1.20;;
10761;SDS011;5433;50.862;4.320;2023-07-20T11:23:54;2.03;;;1.60;;
10761;SDS011;5433;50.862;4.320;2023-07-20T11:26:21;1.70;;;1.45;;
10761;SDS011;5433;50.862;4.320;2023-07-20T11:28:50;1.50;;;1.40;;
10761;SDS011;5433;50.862;4.320;2023-07-20T11:31:17;2.20;;;1.70;;
10761;SDS011;5433;50.862;4.320;2023-07-20T11:33:44;2.47;;;1.70;;
10761;SDS011;5433;50.862;4.320;2023-07-20T11:36:11;1.60;;;1.48;;
10761;SDS011;5433;50.862;4.320;2023-07-20T11:38:38;1.88;;;1.50;;
10761;SDS011;5433;50.862;4.320;2023-07-20T11:41:05;2.45;;;1.70;;
10761;SDS011;5433;50.862;4.320;2023-07-20T11:43:31;1.70;;;1.60;;
10761;SDS011;5433;50.862;4.320;2023-07-20T11:45:57;1.75;;;1.52;;
10761;SDS011;5433;50.862;4.320;2023-07-20T11:48:23;2.97;;;1.70;;
10761;SDS011;5433;50.862;4.320;2023-07-20T11:50:49;1.70;;;1.60;;
10761;SDS011;5433;50.862;4.320;2023-07-20T11:53:15;1.92;;;1.70;;
10761;SDS011;5433;50.862;4.320;2023-07-20T11:55:41;2.42;;;1.60;;
10761;SDS011;5433;50.862;4.320;2023-07-20T11:58:08;1.92;;;1.83;;
10761;SDS011;5433;50.862;4.320;2023-07-20T12:00:37;2.13;;;1.98;;
10761;SDS011;5433;50.862;4.320;2023-07-20T12:03:05;2.25;;;2.05;;
10761;SDS011;5433;50.862;4.320;2023-07-20T12:05:32;2.08;;;1.80;;
10761;SDS011;5433;50.862;4.320;2023-07-20T12:07:58;2.10;;;1.90;;
10761;SDS011;5433;50.862;4.320;2023-07-20T12:10:25;1.92;;;1.83;;
10761;SDS011;5433;50.862;4.320;2023-07-20T12:12:52;2.10;;;1.90;;
10761;SDS011;5433;50.862;4.320;2023-07-20T12:17:51;2.65;;;1.80;;
10761;SDS011;5433;50.862;4.320;2023-07-20T12:20:31;2.17;;;2.00;;
10761;SDS011;5433;50.862;4.320;2023-07-20T12:23:01;2.35;;;2.15;;
10761;SDS011;5433;50.862;4.320;2023-07-20T12:25:36;2.35;;;2.15;;
10761;SDS011;5433;50.862;4.320;2023-07-20T12:28:07;2.95;;;2.28;;
10761;SDS011;5433;50.862;4.320;2023-07-20T12:30:33;2.28;;;2.08;;
10761;SDS011;5433;50.862;4.320;2023-07-20T12:32:59;2.10;;;2.00;;
10761;SDS011;5433;50.862;4.320;2023-07-20T12:35:25;2.30;;;2.10;;
10761;SDS011;5433;50.862;4.320;2023-07-20T12:37:51;2.95;;;1.98;;
10761;SDS011;5433;50.862;4.320;2023-07-20T12:40:18;2.65;;;2.45;;
10761;SDS011;5433;50.862;4.320;2023-07-20T12:42:44;2.60;;;2.30;;
10761;SDS011;5433;50.862;4.320;2023-07-20T12:45:10;2.55;;;2.13;;
10761;SDS011;5433;50.862;4.320;2023-07-20T12:47:36;2.72;;;2.53;;
10761;SDS011;5433;50.862;4.320;2023-07-20T12:50:02;3.15;;;2.45;;
10761;SDS011;5433;50.862;4.320;2023-07-20T12:52:31;2.22;;;2.10;;
10761;SDS011;5433;50.862;4.320;2023-07-20T12:54:57;2.25;;;2.10;;
10761;SDS011;5433;50.862;4.320;2023-07-20T12:57:23;2.80;;;2.22;;
10761;SDS011;5433;50.862;4.320;2023-07-20T12:59:49;2.15;;;1.98;;
10761;SDS011;5433;50.862;4.320;2023-07-20T13:02:16;2.53;;;1.90;;
10761;SDS011;5433;50.862;4.320;2023-07-20T13:04:42;3.03;;;2.20;;
10761;SDS011;5433;50.862;4.320;2023-07-20T13:07:10;2.22;;;2.10;;
10761;SDS011;5433;50.862;4.320;2023-07-20T13:09:39;2.60;;;2.20;;
10761;SDS011;5433;50.862;4.320;2023-07-20T13:12:05;2.10;;;1.90;;
10761;SDS011;5433;50.862;4.320;2023-07-20T13:14:31;2.67;;;2.30;;
10761;SDS011;5433;50.862;4.320;2023-07-20T13:16:57;3.70;;;2.10;;
10761;SDS011;5433;50.862;4.320;2023-07-20T13:19:23;2.20;;;1.90;;
10761;SDS011;5433;50.862;4.320;2023-07-20T13:21:49;2.35;;;2.15;;
10761;SDS011;5433;50.862;4.320;2023-07-20T13:24:16;4.95;;;2.65;;
10761;SDS011;5433;50.862;4.320;2023-07-20T13:26:42;2.85;;;2.65;;
10761;SDS011;5433;50.862;4.320;2023-07-20T13:29:08;3.97;;;3.05;;
10761;SDS011;5433;50.862;4.320;2023-07-20T13:31:34;3.03;;;2.47;;
10761;SDS011;5433;50.862;4.320;2023-07-20T13:34:00;3.28;;;2.00;;
10761;SDS011;5433;50.862;4.320;2023-07-20T13:36:26;2.95;;;2.00;;
10761;SDS011;5433;50.862;4.320;2023-07-20T13:38:52;2.20;;;2.00;;
10761;SDS011;5433;50.862;4.320;2023-07-20T13:41:18;2.75;;;2.17;;
10761;SDS011;5433;50.862;4.320;2023-07-20T13:43:44;5.30;;;3.13;;
10761;SDS011;5433;50.862;4.320;2023-07-20T13:46:14;3.95;;;3.28;;
10761;SDS011;5433;50.862;4.320;2023-07-20T13:48:40;4.40;;;2.28;;
10761;SDS011;5433;50.862;4.320;2023-07-20T13:51:06;2.78;;;2.00;;
10761;SDS011;5433;50.862;4.320;2023-07-20T13:53:32;2.30;;;2.10;;
10761;SDS011;5433;50.862;4.320;2023-07-20T13:55:58;2.67;;;2.15;;
10761;SDS011;5433;50.862;4.320;2023-07-20T13:58:24;3.10;;;2.33;;
10761;SDS011;5433;50.862;4.320;2023-07-20T14:00:50;2.65;;;2.40;;
10761;SDS011;5433;50.862;4.320;2023-07-20T14:03:16;3.00;;;2.35;;
10761;SDS011;5433;50.862;4.320;2023-07-20T14:05:45;2.65;;;2.45;;
10761;SDS011;5433;50.862;4.320;2023-07-20T14:08:11;2.72;;;2.47;;
10761;SDS011;5433;50.862;4.320;2023-07-20T14:10:37;2.88;;;2.35;;
10761;SDS011;5433;50.862;4.320;2023-07-20T14:13:04;2.53;;;2.30;;
10761;SDS011;5433;50.862;4.320;2023-07-20T14:15:30;4.18;;;2.30;;
10761;SDS011;5433;50.862;4.320;2023-07-20T14:17:56;2.58;;;2.38;;
10761;SDS011;5433;50.862;4.320;2023-07-20T14:20:22;4.35;;;2.58;;
10761;SDS011;5433;50.862;4.320;2023-07-20T14:22:48;2.72;;;2.10;;
10761;SDS011;5433;50.862;4.320;2023-07-20T14:25:14;3.08;;;2.03;;
10761;SDS011;5433;50.862;4.320;2023-07-20T14:27:40;2.38;;;2.15;;
10761;SDS011;5433;50.862;4.320;2023-07-20T14:30:06;3.25;;;1.70;;
10761;SDS011;5433;50.862;4.320;2023-07-20T14:32:34;2.45;;;1.90;;
10761;SDS011;5433;50.862;4.320;2023-07-20T14:35:00;1.98;;;1.85;;
10761;SDS011;5433;50.862;4.320;2023-07-20T14:37:26;1.77;;;1.67;;
10761;SDS011;5433;50.862;4.320;2023-07-20T14:39:52;1.80;;;1.67;;
10761;SDS011;5433;50.862;4.320;2023-07-20T14:42:18;1.90;;;1.80;;
10761;SDS011;5433;50.862;4.320;2023-07-20T14:44:44;2.13;;;1.85;;
10761;SDS011;5433;50.862;4.320;2023-07-20T14:47:10;2.00;;;1.80;;
10761;SDS011;5433;50.862;4.320;2023-07-20T14:49:36;4.22;;;1.98;;
10761;SDS011;5433;50.862;4.320;2023-07-20T14:52:02;2.53;;;2.05;;
10761;SDS011;5433;50.862;4.320;2023-07-20T14:54:29;2.28;;;1.75;;
10761;SDS011;5433;50.862;4.320;2023-07-20T14:56:55;2.33;;;2.13;;
10761;SDS011;5433;50.862;4.320;2023-07-20T14:59:21;2.15;;;1.90;;
10761;SDS011;5433;50.862;4.320;2023-07-20T15:01:47;2.05;;;1.80;;
10761;SDS011;5433;50.862;4.320;2023-07-20T15:04:14;2.35;;;1.75;;
10761;SDS011;5433;50.862;4.320;2023-07-20T15:06:40;2.92;;;1.85;;
10761;SDS011;5433;50.862;4.320;2023-07-20T15:09:06;2.80;;;2.20;;
10761;SDS011;5433;50.862;4.320;2023-07-20T15:11:33;2.28;;;1.85;;